sensor_id;sensor_type;location;lat;lon;timestamp;temperature;humidity
18894;DHT22;9579;49.488;8.226;2024-03-23T00:53:53;11.80;99.90
18894;DHT22;9579;49.488;8.226;2024-03-23T00:56:40;11.80;99.90
18894;DHT22;9579;49.488;8.226;2024-03-23T00:59:26;12.00;99.90
18894;DHT22;9579;49.488;8.226;2024-03-23T01:02:14;12.20;99.90
18894;DHT22;9579;49.488;8.226;2024-03-23T01:05:01;13.20;99.90
18894;DHT22;9579;49.488;8.226;2024-03-23T01:07:48;13.40;99.90
18894;DHT22;9579;49.488;8.226;2024-03-23T01:10:37;13.20;99.90
18894;DHT22;9579;49.488;8.226;2024-03-23T01:13:24;11.90;99.90
18894;DHT22;9579;49.488;8.226;2024-03-23T01:16:11;12.00;99.90
18894;DHT22;9579;49.488;8.226;2024-03-23T01:18:59;11.70;99.90
18894;DHT22;9579;49.488;8.226;2024-03-23T01:21:45;11.80;99.90
18894;DHT22;9579;49.488;8.226;2024-03-23T01:24:33;11.80;99.90
18894;DHT22;9579;49.488;8.226;2024-03-23T01:27:20;11.80;99.90
18894;DHT22;9579;49.488;8.226;2024-03-23T01:30:07;13.00;99.90
18894;DHT22;9579;49.488;8.226;2024-03-23T01:32:53;11.80;99.90
18894;DHT22;9579;49.488;8.226;2024-03-23T01:35:41;12.40;99.90
18894;DHT22;9579;49.488;8.226;2024-03-23T01:38:27;12.00;99.90
18894;DHT22;9579;49.488;8.226;2024-03-23T01:41:14;13.70;99.90
18894;DHT22;9579;49.488;8.226;2024-03-23T01:44:05;11.90;99.90
18894;DHT22;9579;49.488;8.226;2024-03-23T01:46:53;11.80;99.90
18894;DHT22;9579;49.488;8.226;2024-03-23T01:49:39;12.00;99.90
18894;DHT22;9579;49.488;8.226;2024-03-23T01:52:26;13.70;99.90
18894;DHT22;9579;49.488;8.226;2024-03-23T01:55:14;12.10;99.90
18894;DHT22;9579;49.488;8.226;2024-03-23T01:58:02;12.00;99.90
18894;DHT22;9579;49.488;8.226;2024-03-23T02:00:50;12.00;99.90
18894;DHT22;9579;49.488;8.226;2024-03-23T02:03:36;12.60;99.90
18894;DHT22;9579;49.488;8.226;2024-03-23T02:06:24;12.30;99.90
18894;DHT22;9579;49.488;8.226;2024-03-23T02:09:10;12.30;99.90
18894;DHT22;9579;49.488;8.226;2024-03-23T02:11:58;11.80;99.90
18894;DHT22;9579;49.488;8.226;2024-03-23T02:14:44;12.40;99.90
18894;DHT22;9579;49.488;8.226;2024-03-23T02:17:34;13.40;99.90
18894;DHT22;9579;49.488;8.226;2024-03-23T02:20:20;14.40;99.90
18894;DHT22;9579;49.488;8.226;2024-03-23T02:23:14;14.20;99.90
18894;DHT22;9579;49.488;8.226;2024-03-23T02:26:00;13.80;99.90
18894;DHT22;9579;49.488;8.226;2024-03-23T02:28:47;13.60;99.90
18894;DHT22;9579;49.488;8.226;2024-03-23T02:31:34;13.10;99.90
18894;DHT22;9579;49.488;8.226;2024-03-23T02:34:21;14.60;99.90
18894;DHT22;9579;49.488;8.226;2024-03-23T02:37:10;13.70;99.90
18894;DHT22;9579;49.488;8.226;2024-03-23T02:39:59;13.60;99.90
18894;DHT22;9579;49.488;8.226;2024-03-23T02:42:45;15.00;99.90
18894;DHT22;9579;49.488;8.226;2024-03-23T02:45:34;15.30;99.90
18894;DHT22;9579;49.488;8.226;2024-03-23T02:48:20;15.40;99.90
18894;DHT22;9579;49.488;8.226;2024-03-23T02:51:07;13.90;99.90
18894;DHT22;9579;49.488;8.226;2024-03-23T02:53:53;15.10;99.90
18894;DHT22;9579;49.488;8.226;2024-03-23T02:56:41;15.20;99.90
18894;DHT22;9579;49.488;8.226;2024-03-23T02:59:27;15.30;99.90
18894;DHT22;9579;49.488;8.226;2024-03-23T03:02:15;15.00;99.90
18894;DHT22;9579;49.488;8.226;2024-03-23T03:05:02;14.20;99.90
18894;DHT22;9579;49.488;8.226;2024-03-23T03:07:50;15.50;99.90
18894;DHT22;9579;49.488;8.226;2024-03-23T03:10:36;15.90;99.90
18894;DHT22;9579;49.488;8.226;2024-03-23T03:13:25;14.10;99.90
18894;DHT22;9579;49.488;8.226;2024-03-23T03:16:11;14.00;99.90
18894;DHT22;9579;49.488;8.226;2024-03-23T03:18:58;15.10;99.90
18894;DHT22;9579;49.488;8.226;2024-03-23T03:21:44;14.10;99.90
18894;DHT22;9579;49.488;8.226;2024-03-23T03:24:32;15.60;99.90
18894;DHT22;9579;49.488;8.226;2024-03-23T03:27:18;14.00;99.90
18894;DHT22;9579;49.488;8.226;2024-03-23T03:30:09;15.40;99.90
18894;DHT22;9579;49.488;8.226;2024-03-23T03:32:55;12.20;99.90
18894;DHT22;9579;49.488;8.226;2024-03-23T03:35:42;14.70;99.90
18894;DHT22;9579;49.488;8.226;2024-03-23T03:38:29;14.00;99.90
18894;DHT22;9579;49.488;8.226;2024-03-23T03:41:16;15.40;99.90
18894;DHT22;9579;49.488;8.226;2024-03-23T03:44:02;14.00;99.90
18894;DHT22;9579;49.488;8.226;2024-03-23T03:46:51;13.90;99.90
18894;DHT22;9579;49.488;8.226;2024-03-23T03:49:37;15.10;99.90
18894;DHT22;9579;49.488;8.226;2024-03-23T03:52:24;14.00;99.90
18894;DHT22;9579;49.488;8.226;2024-03-23T03:55:13;14.50;99.90
18894;DHT22;9579;49.488;8.226;2024-03-23T03:58:01;16.00;99.90
18894;DHT22;9579;49.488;8.226;2024-03-23T04:00:47;15.40;99.90
18894;DHT22;9579;49.488;8.226;2024-03-23T04:03:35;14.90;99.90
18894;DHT22;9579;49.488;8.226;2024-03-23T04:06:21;13.90;99.90
18894;DHT22;9579;49.488;8.226;2024-03-23T04:09:09;14.70;99.90
18894;DHT22;9579;49.488;8.226;2024-03-23T04:11:56;14.10;99.90
18894;DHT22;9579;49.488;8.226;2024-03-23T04:14:43;15.00;99.90
18894;DHT22;9579;49.488;8.226;2024-03-23T04:17:29;14.30;99.90
18894;DHT22;9579;49.488;8.226;2024-03-23T04:20:19;14.70;99.90
18894;DHT22;9579;49.488;8.226;2024-03-23T04:23:05;14.20;99.90
18894;DHT22;9579;49.488;8.226;2024-03-23T04:25:52;14.40;99.90
18894;DHT22;9579;49.488;8.226;2024-03-23T04:28:39;14.90;99.90
18894;DHT22;9579;49.488;8.226;2024-03-23T04:31:26;14.10;99.90
18894;DHT22;9579;49.488;8.226;2024-03-23T04:34:12;14.80;99.90
18894;DHT22;9579;49.488;8.226;2024-03-23T04:37:01;15.30;99.90
18894;DHT22;9579;49.488;8.226;2024-03-23T04:39:48;13.10;99.90
18894;DHT22;9579;49.488;8.226;2024-03-23T04:42:35;13.00;99.90
18894;DHT22;9579;49.488;8.226;2024-03-23T04:45:23;14.40;99.90
18894;DHT22;9579;49.488;8.226;2024-03-23T04:48:10;12.90;99.90
18894;DHT22;9579;49.488;8.226;2024-03-23T04:50:58;14.30;99.90
18894;DHT22;9579;49.488;8.226;2024-03-23T04:53:46;12.80;99.90
18894;DHT22;9579;49.488;8.226;2024-03-23T04:56:33;12.50;99.90
18894;DHT22;9579;49.488;8.226;2024-03-23T04:59:22;12.60;99.90
18894;DHT22;9579;49.488;8.226;2024-03-23T05:02:08;12.60;99.90
18894;DHT22;9579;49.488;8.226;2024-03-23T05:04:55;14.00;99.90
18894;DHT22;9579;49.488;8.226;2024-03-23T05:07:41;13.30;99.90
18894;DHT22;9579;49.488;8.226;2024-03-23T05:10:29;12.20;99.90
18894;DHT22;9579;49.488;8.226;2024-03-23T05:13:16;12.10;99.90
18894;DHT22;9579;49.488;8.226;2024-03-23T05:16:03;11.90;99.90
18894;DHT22;9579;49.488;8.226;2024-03-23T05:18:49;11.80;99.90
18894;DHT22;9579;49.488;8.226;2024-03-23T05:21:36;11.70;99.90
18894;DHT22;9579;49.488;8.226;2024-03-23T05:24:23;13.20;99.90
18894;DHT22;9579;49.488;8.226;2024-03-23T05:27:11;13.30;99.90
18894;DHT22;9579;49.488;8.226;2024-03-23T05:29:57;13.20;99.90
18894;DHT22;9579;49.488;8.226;2024-03-23T05:32:44;13.10;99.90
18894;DHT22;9579;49.488;8.226;2024-03-23T05:35:30;11.50;99.90
18894;DHT22;9579;49.488;8.226;2024-03-23T05:38:17;13.50;99.90
18894;DHT22;9579;49.488;8.226;2024-03-23T05:41:05;11.20;99.90
18894;DHT22;9579;49.488;8.226;2024-03-23T05:43:53;11.30;99.90
18894;DHT22;9579;49.488;8.226;2024-03-23T05:46:40;12.50;99.90
18894;DHT22;9579;49.488;8.226;2024-03-23T05:49:26;11.30;99.90
18894;DHT22;9579;49.488;8.226;2024-03-23T05:52:13;12.90;99.90
18894;DHT22;9579;49.488;8.226;2024-03-23T05:54:59;12.70;99.90
18894;DHT22;9579;49.488;8.226;2024-03-23T05:57:46;12.60;99.90
18894;DHT22;9579;49.488;8.226;2024-03-23T06:00:34;11.20;99.90
18894;DHT22;9579;49.488;8.226;2024-03-23T06:03:21;11.10;99.90
18894;DHT22;9579;49.488;8.226;2024-03-23T06:06:07;11.00;99.90
18894;DHT22;9579;49.488;8.226;2024-03-23T06:08:57;12.60;99.90
18894;DHT22;9579;49.488;8.226;2024-03-23T06:11:43;10.90;99.90
18894;DHT22;9579;49.488;8.226;2024-03-23T06:14:30;11.40;99.90
18894;DHT22;9579;49.488;8.226;2024-03-23T06:17:17;11.00;99.90
18894;DHT22;9579;49.488;8.226;2024-03-23T06:20:05;11.30;99.90
18894;DHT22;9579;49.488;8.226;2024-03-23T06:22:53;11.00;99.90
18894;DHT22;9579;49.488;8.226;2024-03-23T06:25:39;12.70;99.90
18894;DHT22;9579;49.488;8.226;2024-03-23T06:28:25;12.20;99.90
18894;DHT22;9579;49.488;8.226;2024-03-23T06:31:12;10.90;99.90
18894;DHT22;9579;49.488;8.226;2024-03-23T06:34:00;10.80;99.90
18894;DHT22;9579;49.488;8.226;2024-03-23T06:36:47;10.90;99.90
18894;DHT22;9579;49.488;8.226;2024-03-23T06:39:34;10.90;99.90
18894;DHT22;9579;49.488;8.226;2024-03-23T06:42:21;11.70;99.90
18894;DHT22;9579;49.488;8.226;2024-03-23T06:45:08;10.70;99.90
18894;DHT22;9579;49.488;8.226;2024-03-23T06:47:54;10.70;99.90
18894;DHT22;9579;49.488;8.226;2024-03-23T06:50:44;10.90;99.90
18894;DHT22;9579;49.488;8.226;2024-03-23T06:53:32;10.80;99.90
18894;DHT22;9579;49.488;8.226;2024-03-23T06:56:19;12.70;99.90
18894;DHT22;9579;49.488;8.226;2024-03-23T06:59:05;11.40;99.90
18894;DHT22;9579;49.488;8.226;2024-03-23T07:01:52;11.00;99.90
18894;DHT22;9579;49.488;8.226;2024-03-23T07:04:38;12.20;99.90
18894;DHT22;9579;49.488;8.226;2024-03-23T07:07:27;12.50;99.90
18894;DHT22;9579;49.488;8.226;2024-03-23T07:10:13;11.00;99.90
18894;DHT22;9579;49.488;8.226;2024-03-23T07:13:00;12.50;99.90
18894;DHT22;9579;49.488;8.226;2024-03-23T07:15:51;13.20;99.90
18894;DHT22;9579;49.488;8.226;2024-03-23T07:18:40;12.00;99.90
18894;DHT22;9579;49.488;8.226;2024-03-23T07:21:29;12.10;99.90
18894;DHT22;9579;49.488;8.226;2024-03-23T07:33:04;11.90;98.30
18894;DHT22;9579;49.488;8.226;2024-03-23T07:35:54;12.00;98.60
18894;DHT22;9579;49.488;8.226;2024-03-23T07:38:43;10.80;98.00
18894;DHT22;9579;49.488;8.226;2024-03-23T07:41:32;12.80;99.20
18894;DHT22;9579;49.488;8.226;2024-03-23T07:44:22;11.70;98.80
18894;DHT22;9579;49.488;8.226;2024-03-23T07:47:12;12.60;99.40
18894;DHT22;9579;49.488;8.226;2024-03-23T07:52:59;12.40;99.50
18894;DHT22;9579;49.488;8.226;2024-03-23T07:55:54;12.00;98.90
18894;DHT22;9579;49.488;8.226;2024-03-23T08:07:00;13.10;98.90
18894;DHT22;9579;49.488;8.226;2024-03-23T08:09:52;13.00;98.90
18894;DHT22;9579;49.488;8.226;2024-03-23T08:12:49;12.50;98.40
18894;DHT22;9579;49.488;8.226;2024-03-23T08:15:57;12.30;97.50
18894;DHT22;9579;49.488;8.226;2024-03-23T08:19:06;11.70;96.90
18894;DHT22;9579;49.488;8.226;2024-03-23T08:21:56;11.30;97.10
18894;DHT22;9579;49.488;8.226;2024-03-23T08:24:48;11.80;97.10
18894;DHT22;9579;49.488;8.226;2024-03-23T08:27:47;13.20;96.70
18894;DHT22;9579;49.488;8.226;2024-03-23T08:31:11;13.10;95.90
18894;DHT22;9579;49.488;8.226;2024-03-23T08:34:13;13.50;95.50
18894;DHT22;9579;49.488;8.226;2024-03-23T08:37:01;14.20;95.30
18894;DHT22;9579;49.488;8.226;2024-03-23T08:45:14;15.00;93.20
18894;DHT22;9579;49.488;8.226;2024-03-23T08:48:12;15.70;93.20
18894;DHT22;9579;49.488;8.226;2024-03-23T09:02:54;13.00;92.30
18894;DHT22;9579;49.488;8.226;2024-03-23T09:08:28;12.80;92.10
18894;DHT22;9579;49.488;8.226;2024-03-23T09:11:20;12.60;92.50
18894;DHT22;9579;49.488;8.226;2024-03-23T09:16:50;13.20;92.80
18894;DHT22;9579;49.488;8.226;2024-03-23T09:19:49;13.30;92.20
18894;DHT22;9579;49.488;8.226;2024-03-23T09:22:40;14.00;91.80
18894;DHT22;9579;49.488;8.226;2024-03-23T09:25:57;12.40;92.50
18894;DHT22;9579;49.488;8.226;2024-03-23T09:39:08;14.20;88.90
18894;DHT22;9579;49.488;8.226;2024-03-23T09:45:04;14.40;90.80
18894;DHT22;9579;49.488;8.226;2024-03-23T09:51:17;15.50;90.70
18894;DHT22;9579;49.488;8.226;2024-03-23T09:54:08;14.10;88.80
18894;DHT22;9579;49.488;8.226;2024-03-23T09:56:55;15.10;89.30
18894;DHT22;9579;49.488;8.226;2024-03-23T09:59:52;13.90;86.00
18894;DHT22;9579;49.488;8.226;2024-03-23T10:02:52;13.50;83.30
18894;DHT22;9579;49.488;8.226;2024-03-23T10:05:44;14.40;87.40
18894;DHT22;9579;49.488;8.226;2024-03-23T10:08:42;14.10;82.20
18894;DHT22;9579;49.488;8.226;2024-03-23T10:11:32;15.70;82.50
18894;DHT22;9579;49.488;8.226;2024-03-23T10:14:28;13.80;82.50
18894;DHT22;9579;49.488;8.226;2024-03-23T10:17:17;15.70;85.60
18894;DHT22;9579;49.488;8.226;2024-03-23T10:25:23;13.50;82.60
18894;DHT22;9579;49.488;8.226;2024-03-23T10:28:12;14.40;84.00
18894;DHT22;9579;49.488;8.226;2024-03-23T10:31:11;13.10;81.80
18894;DHT22;9579;49.488;8.226;2024-03-23T10:33:59;14.70;84.70
18894;DHT22;9579;49.488;8.226;2024-03-23T10:36:47;14.60;84.20
18894;DHT22;9579;49.488;8.226;2024-03-23T10:39:40;12.70;83.30
18894;DHT22;9579;49.488;8.226;2024-03-23T10:42:30;12.20;84.20
18894;DHT22;9579;49.488;8.226;2024-03-23T10:45:33;12.70;85.00
18894;DHT22;9579;49.488;8.226;2024-03-23T10:48:22;12.70;86.10
18894;DHT22;9579;49.488;8.226;2024-03-23T10:51:04;13.20;86.00
18894;DHT22;9579;49.488;8.226;2024-03-23T10:53:56;13.50;83.80
18894;DHT22;9579;49.488;8.226;2024-03-23T10:56:43;13.50;85.70
18894;DHT22;9579;49.488;8.226;2024-03-23T10:59:31;15.00;83.50
18894;DHT22;9579;49.488;8.226;2024-03-23T11:02:21;15.30;86.10
18894;DHT22;9579;49.488;8.226;2024-03-23T11:05:36;15.20;84.30
18894;DHT22;9579;49.488;8.226;2024-03-23T11:08:31;14.00;84.40
18894;DHT22;9579;49.488;8.226;2024-03-23T11:14:25;14.60;80.20
18894;DHT22;9579;49.488;8.226;2024-03-23T11:17:19;15.10;80.60
18894;DHT22;9579;49.488;8.226;2024-03-23T11:20:08;16.10;81.60
18894;DHT22;9579;49.488;8.226;2024-03-23T11:22:55;13.90;85.50
18894;DHT22;9579;49.488;8.226;2024-03-23T11:25:41;15.10;96.60
18894;DHT22;9579;49.488;8.226;2024-03-23T11:28:28;12.80;95.50
18894;DHT22;9579;49.488;8.226;2024-03-23T11:31:15;11.90;96.70
18894;DHT22;9579;49.488;8.226;2024-03-23T11:34:04;11.20;99.30
18894;DHT22;9579;49.488;8.226;2024-03-23T11:37:03;10.90;98.90
18894;DHT22;9579;49.488;8.226;2024-03-23T11:39:50;11.60;99.90
18894;DHT22;9579;49.488;8.226;2024-03-23T11:42:36;12.90;99.90
18894;DHT22;9579;49.488;8.226;2024-03-23T11:45:24;12.10;97.70
18894;DHT22;9579;49.488;8.226;2024-03-23T11:48:10;12.40;98.80
18894;DHT22;9579;49.488;8.226;2024-03-23T11:50:59;14.30;97.60
18894;DHT22;9579;49.488;8.226;2024-03-23T11:53:45;14.50;96.00
18894;DHT22;9579;49.488;8.226;2024-03-23T11:56:32;13.80;96.60
18894;DHT22;9579;49.488;8.226;2024-03-23T11:59:30;14.10;95.10
18894;DHT22;9579;49.488;8.226;2024-03-23T12:02:18;14.80;93.60
18894;DHT22;9579;49.488;8.226;2024-03-23T12:05:14;16.70;92.50
18894;DHT22;9579;49.488;8.226;2024-03-23T12:08:21;15.60;90.90
18894;DHT22;9579;49.488;8.226;2024-03-23T12:11:09;14.50;91.60
18894;DHT22;9579;49.488;8.226;2024-03-23T12:13:59;12.80;94.60
18894;DHT22;9579;49.488;8.226;2024-03-23T12:16:45;11.80;96.90
18894;DHT22;9579;49.488;8.226;2024-03-23T12:19:33;11.40;96.90
18894;DHT22;9579;49.488;8.226;2024-03-23T12:22:20;12.90;95.50
18894;DHT22;9579;49.488;8.226;2024-03-23T12:25:09;13.10;96.10
18894;DHT22;9579;49.488;8.226;2024-03-23T12:27:58;12.50;93.90
18894;DHT22;9579;49.488;8.226;2024-03-23T12:30:45;13.10;95.10
18894;DHT22;9579;49.488;8.226;2024-03-23T12:33:32;13.60;93.30
18894;DHT22;9579;49.488;8.226;2024-03-23T12:36:19;13.70;93.00
18894;DHT22;9579;49.488;8.226;2024-03-23T12:39:05;13.70;92.40
18894;DHT22;9579;49.488;8.226;2024-03-23T12:41:54;13.10;92.90
18894;DHT22;9579;49.488;8.226;2024-03-23T12:44:40;12.20;97.80
18894;DHT22;9579;49.488;8.226;2024-03-23T12:47:27;10.80;99.90
18894;DHT22;9579;49.488;8.226;2024-03-23T12:50:14;9.60;99.90
18894;DHT22;9579;49.488;8.226;2024-03-23T12:53:01;8.90;99.90
18894;DHT22;9579;49.488;8.226;2024-03-23T12:55:47;10.80;99.90
18894;DHT22;9579;49.488;8.226;2024-03-23T12:58:37;8.70;99.90
18894;DHT22;9579;49.488;8.226;2024-03-23T13:01:24;10.80;99.90
18894;DHT22;9579;49.488;8.226;2024-03-23T13:04:11;11.60;99.90
18894;DHT22;9579;49.488;8.226;2024-03-23T13:06:57;10.30;99.90
18894;DHT22;9579;49.488;8.226;2024-03-23T13:09:44;10.80;99.90
18894;DHT22;9579;49.488;8.226;2024-03-23T13:12:30;11.40;99.90
18894;DHT22;9579;49.488;8.226;2024-03-23T13:15:19;11.90;99.90
18894;DHT22;9579;49.488;8.226;2024-03-23T13:18:06;12.50;99.90
18894;DHT22;9579;49.488;8.226;2024-03-23T13:20:53;12.90;99.90
18894;DHT22;9579;49.488;8.226;2024-03-23T13:23:39;13.30;99.60
18894;DHT22;9579;49.488;8.226;2024-03-23T13:26:28;13.20;98.90
18894;DHT22;9579;49.488;8.226;2024-03-23T13:29:15;13.50;99.00
18894;DHT22;9579;49.488;8.226;2024-03-23T13:32:03;13.90;97.10
18894;DHT22;9579;49.488;8.226;2024-03-23T13:34:50;14.10;97.10
18894;DHT22;9579;49.488;8.226;2024-03-23T13:37:36;14.70;97.30
18894;DHT22;9579;49.488;8.226;2024-03-23T13:40:23;15.30;95.40
18894;DHT22;9579;49.488;8.226;2024-03-23T13:43:09;15.60;94.60
18894;DHT22;9579;49.488;8.226;2024-03-23T13:45:57;16.00;94.80
18894;DHT22;9579;49.488;8.226;2024-03-23T13:48:46;16.40;92.00
18894;DHT22;9579;49.488;8.226;2024-03-23T13:51:32;16.10;92.30
18894;DHT22;9579;49.488;8.226;2024-03-23T13:54:20;16.10;92.90
18894;DHT22;9579;49.488;8.226;2024-03-23T13:57:06;16.80;92.40
18894;DHT22;9579;49.488;8.226;2024-03-23T13:59:53;17.20;90.90
18894;DHT22;9579;49.488;8.226;2024-03-23T14:02:39;16.90;90.30
18894;DHT22;9579;49.488;8.226;2024-03-23T14:05:27;16.40;90.40
18894;DHT22;9579;49.488;8.226;2024-03-23T14:08:13;16.40;91.40
18894;DHT22;9579;49.488;8.226;2024-03-23T14:11:01;15.70;89.80
18894;DHT22;9579;49.488;8.226;2024-03-23T14:13:47;15.10;91.20
18894;DHT22;9579;49.488;8.226;2024-03-23T14:16:34;15.40;90.30
18894;DHT22;9579;49.488;8.226;2024-03-23T14:19:21;16.00;86.60
18894;DHT22;9579;49.488;8.226;2024-03-23T14:22:08;16.70;86.20
18894;DHT22;9579;49.488;8.226;2024-03-23T14:24:55;17.30;83.80
18894;DHT22;9579;49.488;8.226;2024-03-23T14:27:44;17.80;81.50
18894;DHT22;9579;49.488;8.226;2024-03-23T14:30:31;17.90;79.30
18894;DHT22;9579;49.488;8.226;2024-03-23T14:33:18;17.30;78.90
18894;DHT22;9579;49.488;8.226;2024-03-23T14:36:06;17.10;81.60
18894;DHT22;9579;49.488;8.226;2024-03-23T14:38:53;17.50;81.30
18894;DHT22;9579;49.488;8.226;2024-03-23T14:41:40;17.70;80.10
18894;DHT22;9579;49.488;8.226;2024-03-23T14:44:26;18.50;78.30
18894;DHT22;9579;49.488;8.226;2024-03-23T14:47:13;18.80;78.00
18894;DHT22;9579;49.488;8.226;2024-03-23T14:49:59;19.10;79.20
18894;DHT22;9579;49.488;8.226;2024-03-23T14:52:47;19.50;77.70
18894;DHT22;9579;49.488;8.226;2024-03-23T14:55:35;19.50;75.30
18894;DHT22;9579;49.488;8.226;2024-03-23T14:58:23;19.30;74.00
18894;DHT22;9579;49.488;8.226;2024-03-23T15:01:10;18.00;70.90
18894;DHT22;9579;49.488;8.226;2024-03-23T15:03:57;17.20;71.00
18894;DHT22;9579;49.488;8.226;2024-03-23T15:06:43;16.30;73.30
18894;DHT22;9579;49.488;8.226;2024-03-23T15:09:32;15.70;73.80
18894;DHT22;9579;49.488;8.226;2024-03-23T15:12:20;15.10;75.80
18894;DHT22;9579;49.488;8.226;2024-03-23T15:15:08;14.60;75.10
18894;DHT22;9579;49.488;8.226;2024-03-23T15:17:55;14.20;76.90
18894;DHT22;9579;49.488;8.226;2024-03-23T15:20:41;13.70;77.00
18894;DHT22;9579;49.488;8.226;2024-03-23T15:23:28;13.20;80.20
18894;DHT22;9579;49.488;8.226;2024-03-23T15:26:15;13.10;82.70
18894;DHT22;9579;49.488;8.226;2024-03-23T15:29:03;12.30;91.20
18894;DHT22;9579;49.488;8.226;2024-03-23T15:31:55;11.60;94.70
18894;DHT22;9579;49.488;8.226;2024-03-23T15:34:43;10.90;97.60
18894;DHT22;9579;49.488;8.226;2024-03-23T15:37:31;10.00;99.90
18894;DHT22;9579;49.488;8.226;2024-03-23T15:40:20;9.40;99.90
18894;DHT22;9579;49.488;8.226;2024-03-23T15:43:06;9.00;99.90
18894;DHT22;9579;49.488;8.226;2024-03-23T15:45:58;9.00;99.90
18894;DHT22;9579;49.488;8.226;2024-03-23T15:48:45;9.10;99.90
18894;DHT22;9579;49.488;8.226;2024-03-23T15:51:34;9.20;99.90
18894;DHT22;9579;49.488;8.226;2024-03-23T15:54:22;9.20;99.90
18894;DHT22;9579;49.488;8.226;2024-03-23T15:57:09;9.20;99.90
18894;DHT22;9579;49.488;8.226;2024-03-23T15:59:55;9.10;99.90
18894;DHT22;9579;49.488;8.226;2024-03-23T16:02:44;9.20;99.90
18894;DHT22;9579;49.488;8.226;2024-03-23T16:05:32;9.40;99.90
18894;DHT22;9579;49.488;8.226;2024-03-23T16:08:19;9.40;99.90
18894;DHT22;9579;49.488;8.226;2024-03-23T16:11:06;9.50;99.90
18894;DHT22;9579;49.488;8.226;2024-03-23T16:13:52;9.60;99.90
18894;DHT22;9579;49.488;8.226;2024-03-23T16:16:39;9.70;99.90
18894;DHT22;9579;49.488;8.226;2024-03-23T16:19:27;9.80;99.90
18894;DHT22;9579;49.488;8.226;2024-03-23T16:22:14;9.80;99.90
18894;DHT22;9579;49.488;8.226;2024-03-23T16:25:00;9.60;99.90
18894;DHT22;9579;49.488;8.226;2024-03-23T16:27:47;9.50;99.90
18894;DHT22;9579;49.488;8.226;2024-03-23T16:30:33;9.30;99.90
18894;DHT22;9579;49.488;8.226;2024-03-23T16:33:20;9.10;99.90
18894;DHT22;9579;49.488;8.226;2024-03-23T16:36:08;8.90;99.90
18894;DHT22;9579;49.488;8.226;2024-03-23T16:38:57;8.80;99.90
18894;DHT22;9579;49.488;8.226;2024-03-23T16:41:43;9.50;99.90
18894;DHT22;9579;49.488;8.226;2024-03-23T16:44:30;8.50;99.90
18894;DHT22;9579;49.488;8.226;2024-03-23T16:47:16;8.50;99.90
18894;DHT22;9579;49.488;8.226;2024-03-23T16:50:03;8.40;99.90
18894;DHT22;9579;49.488;8.226;2024-03-23T16:52:51;8.30;99.90
18894;DHT22;9579;49.488;8.226;2024-03-23T16:55:38;8.20;99.90
18894;DHT22;9579;49.488;8.226;2024-03-23T16:58:24;8.20;99.90
18894;DHT22;9579;49.488;8.226;2024-03-23T17:01:12;8.30;99.90
18894;DHT22;9579;49.488;8.226;2024-03-23T17:04:04;8.20;99.90
18894;DHT22;9579;49.488;8.226;2024-03-23T17:06:51;8.00;99.90
18894;DHT22;9579;49.488;8.226;2024-03-23T17:09:46;8.00;99.90
18894;DHT22;9579;49.488;8.226;2024-03-23T17:12:34;8.10;99.90
18894;DHT22;9579;49.488;8.226;2024-03-23T17:15:20;8.10;99.90
18894;DHT22;9579;49.488;8.226;2024-03-23T17:18:07;8.30;99.90
18894;DHT22;9579;49.488;8.226;2024-03-23T17:20:53;8.40;99.90
18894;DHT22;9579;49.488;8.226;2024-03-23T17:23:40;8.40;99.90
18894;DHT22;9579;49.488;8.226;2024-03-23T17:26:28;8.50;99.90
18894;DHT22;9579;49.488;8.226;2024-03-23T17:29:15;8.50;99.90
18894;DHT22;9579;49.488;8.226;2024-03-23T17:32:01;8.50;99.40
18894;DHT22;9579;49.488;8.226;2024-03-23T17:34:48;8.40;99.70
18894;DHT22;9579;49.488;8.226;2024-03-23T17:37:36;8.40;99.70
18894;DHT22;9579;49.488;8.226;2024-03-23T17:40:23;8.40;99.70
18894;DHT22;9579;49.488;8.226;2024-03-23T17:43:11;8.50;99.90
18894;DHT22;9579;49.488;8.226;2024-03-23T17:45:58;8.50;99.70
18894;DHT22;9579;49.488;8.226;2024-03-23T17:48:44;8.40;99.90
18894;DHT22;9579;49.488;8.226;2024-03-23T17:51:31;8.40;99.90
18894;DHT22;9579;49.488;8.226;2024-03-23T17:54:17;8.50;99.90
18894;DHT22;9579;49.488;8.226;2024-03-23T17:57:05;8.60;99.90
18894;DHT22;9579;49.488;8.226;2024-03-23T17:59:53;8.60;99.90
18894;DHT22;9579;49.488;8.226;2024-03-23T18:02:40;8.70;99.90
18894;DHT22;9579;49.488;8.226;2024-03-23T18:05:27;8.80;99.70
18894;DHT22;9579;49.488;8.226;2024-03-23T18:08:14;8.70;99.90
18894;DHT22;9579;49.488;8.226;2024-03-23T18:11:07;8.80;99.90
18894;DHT22;9579;49.488;8.226;2024-03-23T18:13:54;8.90;99.90
18894;DHT22;9579;49.488;8.226;2024-03-23T18:16:41;8.90;99.50
18894;DHT22;9579;49.488;8.226;2024-03-23T18:19:29;9.30;99.80
18894;DHT22;9579;49.488;8.226;2024-03-23T18:22:16;8.90;99.90
18894;DHT22;9579;49.488;8.226;2024-03-23T18:25:04;9.00;99.90
18894;DHT22;9579;49.488;8.226;2024-03-23T18:27:51;9.10;99.90
18894;DHT22;9579;49.488;8.226;2024-03-23T18:30:39;9.00;99.90
18894;DHT22;9579;49.488;8.226;2024-03-23T18:33:32;9.10;99.90
18894;DHT22;9579;49.488;8.226;2024-03-23T18:36:19;9.10;99.90
18894;DHT22;9579;49.488;8.226;2024-03-23T18:39:05;9.10;99.90
18894;DHT22;9579;49.488;8.226;2024-03-23T18:41:53;9.20;99.90
18894;DHT22;9579;49.488;8.226;2024-03-23T18:44:39;9.20;99.90
18894;DHT22;9579;49.488;8.226;2024-03-23T18:47:26;9.20;99.90
18894;DHT22;9579;49.488;8.226;2024-03-23T18:50:13;9.10;99.90
18894;DHT22;9579;49.488;8.226;2024-03-23T18:53:00;9.10;99.90
18894;DHT22;9579;49.488;8.226;2024-03-23T18:55:54;8.90;99.90
18894;DHT22;9579;49.488;8.226;2024-03-23T18:58:41;8.90;99.90
18894;DHT22;9579;49.488;8.226;2024-03-23T19:01:27;8.80;99.90
18894;DHT22;9579;49.488;8.226;2024-03-23T19:04:14;8.80;99.90
18894;DHT22;9579;49.488;8.226;2024-03-23T19:07:01;8.80;99.90
18894;DHT22;9579;49.488;8.226;2024-03-23T19:09:50;8.80;99.90
18894;DHT22;9579;49.488;8.226;2024-03-23T19:12:36;8.90;99.90
18894;DHT22;9579;49.488;8.226;2024-03-23T19:15:23;9.00;99.90
18894;DHT22;9579;49.488;8.226;2024-03-23T19:18:09;9.30;99.90
18894;DHT22;9579;49.488;8.226;2024-03-23T19:20:58;9.30;99.90
18894;DHT22;9579;49.488;8.226;2024-03-23T19:23:45;9.30;99.90
18894;DHT22;9579;49.488;8.226;2024-03-23T19:26:32;9.30;99.90
18894;DHT22;9579;49.488;8.226;2024-03-23T19:29:18;9.30;99.90
18894;DHT22;9579;49.488;8.226;2024-03-23T19:32:06;9.30;99.90
18894;DHT22;9579;49.488;8.226;2024-03-23T19:34:52;9.20;99.80
18894;DHT22;9579;49.488;8.226;2024-03-23T19:37:39;9.10;99.90
18894;DHT22;9579;49.488;8.226;2024-03-23T19:40:26;9.00;99.70
18894;DHT22;9579;49.488;8.226;2024-03-23T19:43:13;8.80;99.90
18894;DHT22;9579;49.488;8.226;2024-03-23T19:46:02;8.90;99.90
18894;DHT22;9579;49.488;8.226;2024-03-23T19:48:49;8.80;99.90
18894;DHT22;9579;49.488;8.226;2024-03-23T19:51:35;8.80;99.90
18894;DHT22;9579;49.488;8.226;2024-03-23T19:54:22;8.90;99.90
18894;DHT22;9579;49.488;8.226;2024-03-23T19:57:09;8.90;99.90
18894;DHT22;9579;49.488;8.226;2024-03-23T19:59:56;8.90;99.90
18894;DHT22;9579;49.488;8.226;2024-03-23T20:02:45;8.90;99.90
18894;DHT22;9579;49.488;8.226;2024-03-23T20:05:32;8.80;99.90